Clones, Ireland

9:41 PM IST on October 23, 2014 (GMT +0100)
IMONAGHA2 | Change Station
CLOSE
Current Station
Personal Weather Station
Location: Carrickmacross, MONAGHAN
Elevation: 486 ft
Nearby Weather Stations

Elev 486 ft 54.01 °N, 6.78 °W | Updated 50 seconds ago

Partly Cloudy
Partly Cloudy
50.2 °F
Feels Like 50.2 °F
N
7.6
Wind Variable Wind from WSW
Gusts 10.7 mph

Today
High -- | Low -- °F
--% Chance of Precip.
Yesterday
High -- | Low -- °F
Precip. -- in
8:12 AM 6:13 PM
Waning Crescent, 0% visible
Pressure 29.80 in
Visibility 6.2 miles
Clouds Few 4600 ft
Dew Point 50 °F
Humidity 100%
Rainfall 0.04 in
Snow Depth Not available.
UV 0 out of 12
Pollen Not available.
Air Quality Not available.
Flu Activity Not available.
METAR EGAA 232020Z 24010KT 9999 FEW046 11/09 Q1009

More Conditions Fewer Conditions

Pressure 29.80 in
Visibility 6.2 miles
Clouds Few 4600 ft
Dew Point 50 °F
Humidity 100%
Rainfall 0.04 in
Snow Depth Not available.
UV 0 out of 12
Pollen Not available.
Air Quality Not available.
Flu Activity Not available.
METAR EGAA 232020Z 24010KT 9999 FEW046 11/09 Q1009

More Conditions Fewer Conditions

10-Day Weather Forecast

Almanac

Astronomy

Oct. 23, 2014 Rise Set
Actual Time 8:12 AM IST 6:13 PM IST
Civil Twilight 7:35 AM IST 6:50 PM IST
Nautical Twilight 6:54 AM IST 7:31 PM IST
Astronomical Twilight 6:13 AM IST 8:12 PM IST
Moon 7:33 AM IST 6:08 PM IST
Length of Visible Light 11h 14m
Length of Day
10h 01m
Tomorrow will be 4m 9s shorter.
Waning Crescent, 0% of the Moon is Illuminated
Today
Waning Crescent
Oct 23
New
Oct 30
First Quarter
Nov 6
Full
Nov 14
Last Quarter

Today's Extremes

Country Highs Country Lows

Community

WunderPhotos

Upload Photos

1,764,362 photos uploaded!

WunderBlogs® & News

By Dr. Jeff Masters
Director of Meteorology, Weather Underground
By Kari Strenfel
Meteorologist, Weather Underground
By Christopher C. Burt
Weather Historian, Weather Underground
October 23, 2014
October 23, 2014
October 23, 2014

Nearby

Snow Depth

Not available.

Earthquake Activity

City Distance Mag. Time & Date
No recent earthquake activity has been reported nearby.
Minimum magnitude displayed is 2.5.

Coastal Water Temperatures

Place Temperature
No Stations Reporting

Nearby Weather Stations